Venango Regional Airport
KFKL : now visible

Airfield :











YOU CAN JOIN US ON...

 
LOGIN :

Register | Disclaimer

   EN    FR    IT 

 









Legend :    VFR   Marginal VFR   IFR   Intensive IFR   Very Intensive IFR
Visi :
Ceiling :
>= 8 km
>= 3000ft
5 to 8 km
1000 to 3000 ft
1500m to 5 km
500 to 1000 ft
800 to 1500m
200 to 500 ft
< 800m
< 200 ft
Symbols :   Thunderstorms  Fog  Heavy snow  Heavy precipitations  Wind > 20 kt






- Airport Elevation : 1540 ft


KFKL - Venango Regional

CURRENT METAR :
  • 161656Z AUTO 11007KT 10SM OVC011 19/17 A3022 RMK AO2 SLP231 T01890167

EXPIRED METARs :
  • 161626Z AUTO 13008KT 10SM BKN011 OVC021 19/17 A3022 RMK AO2
  • 161556Z AUTO 15008KT 10SM SCT011 OVC019 19/17 A3023 RMK AO2 SLP233 T01890167
  • 161519Z AUTO 11005KT 10SM BKN013 20/17 A3022 RMK AO2
  • 161456Z AUTO 09007KT 10SM FEW011 19/16 A3022 RMK AO2 SLP232 T01940161 53004

TAF KFKL
Valid from the 16 at 18:00 until the 17 at 18:00 UTC


161721Z 1618/1718 11005KT P6SM BKN015
FM162000 12006KT P6SM BKN035
FM170400 13004KT P6SM SKC
FM170900 13004KT 3SM BR BKN007
FM171300 14005KT 6SM BR SCT007
FM171500 15005KT P6SM SCT025
KZOB FIR / North America



MET'MAP, your aeronautical weather chart ! - Copyright ORBIFLY December 2007 - Disclaimer

ORBIFLY MET'MAP TEAM :

Programming & Development : Alexandra Zaïnal
Concept & original design : Baudouin d'Aumeries
Assistance for programming : Marc-Olivier Méhu
Technical & hardware support : Manuel Goepfert

Contact : metmap@orbifly.com




SOURCES & CREDITS :

   NOAA       Earth
Advisory